Weather History for Monticello, NY

Change the Weather History Date:

Monday, September 23, 2013

  Actual Average Record
Temperature  
Mean Temperature 48 °F -  
Max Temperature 57 °F 64 °F 77 °F (2004)
Min Temperature 39 °F 46 °F 39 °F (1998)
Degree Days  
Heating Degree Days 17    
Growing Degree Days 0 (Base 50)    
Moisture  
Dew Point 35 °F    
Average Humidity 62    
Maximum Humidity 81    
Minimum Humidity 47    
Precipitation  
Precipitation 0.00 in - - ()
Sea Level Pressure  
Sea Level Pressure 30.03 in    
Wind  
Wind Speed 10 mph (NW)    
Max Wind Speed 21 mph    
Max Gust Speed 29 mph    
Visibility 10 miles    
Events      
Averages and records for this station are not official NWS values.
T = Trace of Precipitation, MM = Missing Value Source: NWS Daily Summary

Daily Weather History Graph

Daily Weather History Graph

Search for Another Location

Airport:

Trip Planner

Search our weather history database for the weather conditions in past years. The results will help you decide how hot, cold, wet, or windy it might be!

Date:

Astronomy

Sep. 23, 2013 Rise Set
Actual Time 6:47 AM EDT 6:54 PM EDT
Civil Twilight 6:20 AM EDT 7:21 PM EDT
Nautical Twilight 5:47 AM EDT 7:54 PM EDT
Astronomical Twilight 5:14 AM EDT 8:27 PM EDT
Moon 9:20 PM EDT (9/23) 11:08 AM EDT (9/23)
Length of Visible Light 13h 01m
Length of Day
12h 06m
Waning Gibbous, 81% of the Moon is Illuminated
Sep 23
Waning Gibbous
Sep 26
Last Quarter
Oct 4
New
Oct 11
First Quarter
Oct 18
Full

Hourly Weather History & Observations

Time (EDT) Temp. Windchill Dew Point Humidity Pressure Visibility Wind Dir Wind Speed Gust Speed Precip Events Conditions
12:15 AM 46.4 °F 42.4 °F 35.6 °F 66% 29.95 in 10.0 mi NW 8.1 mph - N/A   Overcast
12:35 AM 46.4 °F 41.5 °F 35.6 °F 66% 29.95 in 10.0 mi NW 10.4 mph - N/A   Overcast
12:55 AM 46.4 °F 40.4 °F 35.6 °F 66% 29.95 in 10.0 mi NW 13.8 mph 19.6 mph N/A   Overcast
1:15 AM 46.4 °F 40.7 °F 35.6 °F 66% 29.96 in 10.0 mi NNW 12.7 mph 19.6 mph N/A   Overcast
1:35 AM 46.4 °F 41.1 °F 35.6 °F 66% 29.96 in 10.0 mi NNW 11.5 mph 16.1 mph N/A   Overcast
1:55 AM 46.4 °F 40.7 °F 33.8 °F 62% 29.96 in 10.0 mi NNW 12.7 mph - N/A   Overcast
2:15 AM 44.6 °F 40.2 °F 33.8 °F 66% 29.96 in 10.0 mi NW 8.1 mph - N/A   Scattered Clouds
2:35 AM 44.6 °F 41.4 °F 33.8 °F 66% 29.96 in 10.0 mi NW 5.8 mph - N/A   Clear
2:55 AM 42.8 °F 38.6 °F 33.8 °F 70% 29.96 in 10.0 mi NW 6.9 mph - N/A   Clear
3:15 AM 42.8 °F 39.3 °F 33.8 °F 70% 29.96 in 10.0 mi NW 5.8 mph - N/A   Clear
3:35 AM 42.8 °F 41.1 °F 33.8 °F 70% 29.97 in 10.0 mi WNW 3.5 mph - N/A   Clear
3:55 AM 42.8 °F 39.3 °F 33.8 °F 70% 29.97 in 10.0 mi WNW 5.8 mph - N/A   Clear
4:15 AM 41.0 °F 37.1 °F 33.8 °F 76% 29.97 in 10.0 mi WNW 5.8 mph - N/A   Clear
4:35 AM 41.0 °F 38.0 °F 33.8 °F 76% 29.98 in 10.0 mi WNW 4.6 mph - N/A   Clear
4:55 AM 41.0 °F - 33.8 °F 76% 29.98 in 10.0 mi Calm Calm - N/A   Scattered Clouds
5:15 AM 39.2 °F - 33.8 °F 81% 29.99 in 10.0 mi Calm Calm - N/A   Mostly Cloudy
5:35 AM 39.2 °F - 33.8 °F 81% 29.99 in 10.0 mi Calm Calm - N/A   Mostly Cloudy
5:55 AM 39.2 °F - 33.8 °F 81% 30.00 in 10.0 mi Calm Calm - N/A   Overcast
6:15 AM 39.2 °F 37.0 °F 33.8 °F 81% 30.01 in 10.0 mi WSW 3.5 mph - N/A   Overcast
6:35 AM 39.2 °F 37.0 °F 33.8 °F 81% 30.01 in 10.0 mi WNW 3.5 mph - N/A   Overcast
6:55 AM 42.8 °F 39.3 °F 33.8 °F 70% 30.01 in 10.0 mi West 5.8 mph - N/A   Overcast
7:15 AM 41.0 °F 37.1 °F 33.8 °F 76% 30.02 in 10.0 mi West 5.8 mph - N/A   Scattered Clouds
7:35 AM 41.0 °F - 33.8 °F 76% 30.02 in 10.0 mi Calm Calm - N/A   Clear
7:55 AM 42.8 °F - 35.6 °F 76% 30.03 in 10.0 mi Calm Calm - N/A   Partly Cloudy
8:15 AM 44.6 °F 40.7 °F 35.6 °F 71% 30.03 in 10.0 mi NW 6.9 mph - N/A   Clear
8:35 AM 44.6 °F 38.8 °F 33.8 °F 66% 30.03 in 10.0 mi NNW 11.5 mph 17.3 mph N/A   Partly Cloudy
8:55 AM 46.4 °F 40.1 °F 35.6 °F 66% 30.04 in 10.0 mi NNW 15.0 mph 19.6 mph N/A   Partly Cloudy
9:15 AM 48.2 °F - 33.8 °F 58% 30.04 in 10.0 mi NNW 16.1 mph 25.3 mph N/A   Partly Cloudy
9:35 AM 48.2 °F - 33.8 °F 58% 30.04 in 10.0 mi NNW 17.3 mph 28.8 mph N/A   Partly Cloudy
9:55 AM 48.2 °F - 35.6 °F 62% 30.04 in 10.0 mi NW 13.8 mph 25.3 mph N/A   Mostly Cloudy
10:15 AM 48.2 °F - 35.6 °F 62% 30.05 in 10.0 mi NNW 17.3 mph 23.0 mph N/A   Overcast
10:35 AM 50.0 °F - 35.6 °F 58% 30.04 in 10.0 mi NNW 15.0 mph 21.9 mph N/A   Scattered Clouds
10:55 AM 51.8 °F - 35.6 °F 54% 30.05 in 10.0 mi NW 11.5 mph 23.0 mph N/A   Mostly Cloudy
11:15 AM 51.8 °F - 33.8 °F 50% 30.05 in 10.0 mi NNW 17.3 mph 25.3 mph N/A   Scattered Clouds
11:35 AM 51.8 °F - 35.6 °F 54% 30.05 in 10.0 mi WNW 12.7 mph 20.7 mph N/A   Partly Cloudy
11:55 AM 51.8 °F - 35.6 °F 54% 30.04 in 10.0 mi NW 16.1 mph 27.6 mph N/A   Partly Cloudy
12:15 PM 53.6 °F - 35.6 °F 51% 30.04 in 10.0 mi NNW 20.7 mph 27.6 mph N/A   Clear
12:35 PM 53.6 °F - 35.6 °F 51% 30.04 in 10.0 mi North 15.0 mph 24.2 mph N/A   Clear
12:55 PM 55.4 °F - 35.6 °F 47% 30.04 in 10.0 mi WNW 13.8 mph 21.9 mph N/A   Clear
1:15 PM 55.4 °F - 35.6 °F 47% 30.04 in 10.0 mi NW 16.1 mph 19.6 mph N/A   Clear
1:35 PM 55.4 °F - 37.4 °F 51% 30.03 in 10.0 mi North 20.7 mph 26.5 mph N/A   Clear
1:55 PM 55.4 °F - 37.4 °F 51% 30.03 in 10.0 mi WNW 12.7 mph 19.6 mph N/A   Clear
2:15 PM 57.2 °F - 37.4 °F 48% 30.02 in 10.0 mi NW 15.0 mph 21.9 mph N/A   Clear
2:35 PM 57.2 °F - 37.4 °F 48% 30.02 in 10.0 mi North 13.8 mph 21.9 mph N/A   Clear
2:55 PM 57.2 °F - 37.4 °F 48% 30.01 in 10.0 mi NNW 18.4 mph 23.0 mph N/A   Clear
3:15 PM 57.2 °F - 37.4 °F 48% 30.01 in 10.0 mi WNW 12.7 mph 21.9 mph N/A   Clear
3:35 PM 57.2 °F - 37.4 °F 48% 30.02 in 10.0 mi NW 13.8 mph 21.9 mph N/A   Clear
3:55 PM 57.2 °F - 37.4 °F 48% 30.02 in 10.0 mi NW 13.8 mph 19.6 mph N/A   Clear
4:15 PM 57.2 °F - 37.4 °F 48% 30.02 in 10.0 mi NNW 13.8 mph 20.7 mph N/A   Clear
4:35 PM 57.2 °F - 37.4 °F 48% 30.02 in 10.0 mi North 13.8 mph - N/A   Clear
4:55 PM 57.2 °F - 37.4 °F 48% 30.02 in 10.0 mi NW 12.7 mph 18.4 mph N/A   Clear
5:15 PM 55.4 °F - 37.4 °F 51% 30.03 in 10.0 mi NNW 12.7 mph 18.4 mph N/A   Clear
5:35 PM 55.4 °F - 37.4 °F 51% 30.04 in 10.0 mi WNW 12.7 mph 17.3 mph N/A   Clear
5:55 PM 53.6 °F - 37.4 °F 54% 30.04 in 10.0 mi NW 13.8 mph 20.7 mph N/A   Clear
6:15 PM 53.6 °F - 37.4 °F 54% 30.05 in 10.0 mi NW 12.7 mph 18.4 mph N/A   Clear
6:35 PM 51.8 °F - 35.6 °F 54% 30.06 in 10.0 mi NW 9.2 mph 18.4 mph N/A   Clear
6:55 PM 48.2 °F - 37.4 °F 66% 30.06 in 10.0 mi NW 10.4 mph - N/A   Scattered Clouds
7:15 PM 48.2 °F - 35.6 °F 62% 30.06 in 10.0 mi NW 13.8 mph 19.6 mph N/A   Mostly Cloudy
7:35 PM 48.2 °F - 35.6 °F 62% 30.07 in 10.0 mi NW 12.7 mph 17.3 mph N/A   Overcast
7:55 PM 48.2 °F - 35.6 °F 62% 30.07 in 10.0 mi NW 10.4 mph - N/A   Overcast
8:15 PM 48.2 °F - 35.6 °F 62% 30.07 in 10.0 mi NNW 12.7 mph 17.3 mph N/A   Mostly Cloudy
8:35 PM 46.4 °F 42.4 °F 35.6 °F 66% 30.07 in 10.0 mi NNW 8.1 mph - N/A   Overcast
8:55 PM 46.4 °F 42.9 °F 35.6 °F 66% 30.08 in 10.0 mi North 6.9 mph - N/A   Overcast
9:15 PM 46.4 °F 42.9 °F 35.6 °F 66% 30.08 in 10.0 mi NNW 6.9 mph - N/A   Overcast
9:35 PM 46.4 °F 42.9 °F 35.6 °F 66% 30.08 in 10.0 mi NNW 6.9 mph - N/A   Mostly Cloudy
9:55 PM 46.4 °F 43.5 °F 35.6 °F 66% 30.08 in 10.0 mi NW 5.8 mph - N/A   Mostly Cloudy
10:15 PM 46.4 °F 41.9 °F 35.6 °F 66% 30.09 in 10.0 mi North 9.2 mph - N/A   Overcast
10:35 PM 44.6 °F 40.2 °F 33.8 °F 66% 30.09 in 10.0 mi NNW 8.1 mph - N/A   Scattered Clouds
10:55 PM 44.6 °F 40.7 °F 33.8 °F 66% 30.09 in 10.0 mi NW 6.9 mph - N/A   Scattered Clouds
11:15 PM 42.8 °F 38.0 °F 33.8 °F 70% 30.08 in 10.0 mi NNW 8.1 mph - N/A   Partly Cloudy
11:35 PM 42.8 °F 38.6 °F 33.8 °F 70% 30.09 in 10.0 mi NNW 6.9 mph - N/A   Clear
11:55 PM 41.0 °F 34.7 °F 33.8 °F 76% 30.08 in 10.0 mi NNW 10.4 mph - N/A   Clear